Air Navigation Services of Czech Republic
Airport: LKPR Updated:  15.09.2019 21:55:26  UTC
 METAR LKPR 15.09. 21:30 ...
METAR LKPR 152130Z 23007KT CAVOK 17/13 Q1020 NOSIG RMK REG QNH 1018=
 TAF LKPR 15.09. 17:00 ...
TAF LKPR 151700Z 1518/1700 24010KT CAVOK      BECMG 1518/1520 28006KT      BECMG 1602/1604 30008KT      BECMG 1610/1612 02010KT 9999 SCT040      BECMG 1613/1615 9999 BKN040      PROB30 TEMPO 1616/1618 -RA      TEMPO 1618/1700 7000 RA BKN030=